createdAt,value
2022-08-27T00:01:16.498Z,101825.09
2022-08-27T00:03:46.757Z,101826.84
2022-08-27T00:06:17.912Z,101819.91
2022-08-27T00:08:46.791Z,101819.03
2022-08-27T00:11:13.826Z,101816.44
2022-08-27T00:13:40.961Z,101819.06
2022-08-27T00:16:09.776Z,101819.03
2022-08-27T00:18:37.600Z,101815.59
2022-08-27T00:21:04.986Z,101819.09
2022-08-27T00:23:34.560Z,101816.47
2022-08-27T00:26:01.509Z,101800.84
2022-08-27T00:28:29.142Z,101810.41
2022-08-27T00:30:56.145Z,101803.44
2022-08-27T00:33:23.293Z,101810.38
2022-08-27T00:35:50.808Z,101806.91
2022-08-27T00:38:17.944Z,101796.47
2022-08-27T00:40:44.892Z,101802.53
2022-08-27T00:43:11.741Z,101796.50
2022-08-27T00:45:43.005Z,101795.59
2022-08-27T00:48:13.550Z,101794.78
2022-08-27T00:50:43.459Z,101801.75
2022-08-27T00:53:19.639Z,101797.41
2022-08-27T00:55:51.020Z,101803.47
2022-08-27T00:58:30.752Z,101801.75
2022-08-27T01:00:59.355Z,101800.03
2022-08-27T01:03:26.998Z,101805.22
2022-08-27T01:05:56.667Z,101804.38
2022-08-27T01:08:26.545Z,101803.50
2022-08-27T01:10:54.995Z,101804.38
2022-08-27T01:13:58.917Z,101813.94
2022-08-27T01:16:17.498Z,101819.19
2022-08-27T01:18:44.644Z,101809.66
2022-08-27T01:21:31.624Z,101813.13
2022-08-27T01:24:08.015Z,101808.78
2022-08-27T01:26:34.848Z,101811.44
2022-08-27T01:29:01.407Z,101812.34
2022-08-27T01:31:29.341Z,101808.03
2022-08-27T01:34:05.112Z,101820.22
2022-08-27T01:36:32.059Z,101817.63
2022-08-27T01:38:58.992Z,101822.00
2022-08-27T01:41:25.979Z,101816.81
2022-08-27T01:43:53.152Z,101813.34
2022-08-27T01:46:25.244Z,101808.16
2022-08-27T01:48:52.000Z,101820.31
2022-08-27T01:51:18.646Z,101807.34
2022-08-27T01:53:45.585Z,101814.28
2022-08-27T01:56:12.089Z,101809.97
2022-08-27T01:58:39.573Z,101808.25
2022-08-27T02:01:10.547Z,101800.47
2022-08-27T02:03:40.043Z,101804.81
2022-08-27T02:06:09.210Z,101800.50
2022-08-27T02:08:35.994Z,101799.63
2022-08-27T02:11:03.258Z,101795.31
2022-08-27T02:13:29.810Z,101796.22
2022-08-27T02:15:56.774Z,101799.69
2022-08-27T02:18:23.448Z,101798.81
2022-08-27T02:20:50.060Z,101794.53
2022-08-27T02:23:18.111Z,101785.88
2022-08-27T02:25:47.154Z,101791.94
2022-08-27T02:28:14.458Z,101784.16
2022-08-27T02:30:40.969Z,101789.34
2022-08-27T02:33:07.589Z,101790.22
2022-08-27T02:35:38.983Z,101778.94
2022-08-27T02:38:06.326Z,101791.09
2022-08-27T02:40:32.971Z,101788.47
2022-08-27T02:42:59.557Z,101783.25
2022-08-27T02:45:26.125Z,101787.63
2022-08-27T02:47:53.944Z,101785.00
2022-08-27T02:50:20.625Z,101783.28
2022-08-27T02:52:53.260Z,101787.63
2022-08-27T02:55:20.693Z,101784.13
2022-08-27T02:57:47.301Z,101778.94
2022-08-27T03:00:17.890Z,101786.72
2022-08-27T03:02:45.166Z,101785.00
2022-08-27T03:05:13.157Z,101777.19
2022-08-27T03:07:40.290Z,101783.25
2022-08-27T03:10:07.705Z,101775.47
2022-08-27T03:12:36.323Z,101777.22
2022-08-27T03:15:08.976Z,101779.78
2022-08-27T03:17:54.624Z,101772.00
2022-08-27T03:20:21.596Z,101778.06
2022-08-27T03:22:48.455Z,101769.41
2022-08-27T03:25:15.401Z,101760.75
2022-08-27T03:27:41.920Z,101769.41
2022-08-27T03:30:12.791Z,101769.41
2022-08-27T03:32:39.823Z,101771.16
2022-08-27T03:35:06.944Z,101765.97
2022-08-27T03:37:35.195Z,101764.22
2022-08-27T03:40:02.128Z,101768.56
2022-08-27T03:42:28.701Z,101765.94
2022-08-27T03:44:55.205Z,101776.38
2022-08-27T03:47:22.961Z,101772.03
2022-08-27T03:49:50.268Z,101772.00
2022-08-27T03:52:17.107Z,101764.19
2022-08-27T03:54:43.620Z,101768.53
2022-08-27T03:57:10.608Z,101767.63
2022-08-27T03:59:37.954Z,101764.19
2022-08-27T04:02:05.147Z,101772.84
2022-08-27T04:04:31.748Z,101773.69
2022-08-27T04:06:59.069Z,101771.97
2022-08-27T04:09:26.236Z,101771.97
2022-08-27T04:11:52.791Z,101768.50
2022-08-27T04:14:26.523Z,101780.66
2022-08-27T04:16:56.193Z,101781.53
2022-08-27T04:19:27.763Z,101769.34
2022-08-27T04:22:00.219Z,101771.09
2022-08-27T04:24:26.761Z,101774.53
2022-08-27T04:26:53.300Z,101775.41
2022-08-27T04:29:19.857Z,101772.81
2022-08-27T04:31:46.340Z,101767.59
2022-08-27T04:34:12.871Z,101771.06
2022-08-27T04:36:39.330Z,101768.47
2022-08-27T04:39:05.830Z,101777.16
2022-08-27T04:41:33.580Z,101765.88
2022-08-27T04:44:06.117Z,101777.13
2022-08-27T04:46:35.819Z,101772.78
2022-08-27T04:49:08.991Z,101777.13
2022-08-27T04:51:39.340Z,101779.72
2022-08-27T04:54:07.812Z,101780.59
2022-08-27T04:56:35.880Z,101780.59
2022-08-27T04:59:04.691Z,101781.47
2022-08-27T05:01:32.199Z,101778.84
2022-08-27T05:03:58.895Z,101778.81
2022-08-27T05:06:26.241Z,101788.38
2022-08-27T05:08:54.379Z,101784.91
2022-08-27T05:11:22.552Z,101790.09
2022-08-27T05:13:49.290Z,101788.34
2022-08-27T05:16:19.493Z,101786.63
2022-08-27T05:18:48.876Z,101783.13
2022-08-27T05:21:27.285Z,101785.75
2022-08-27T05:23:56.506Z,101793.53
2022-08-27T05:26:23.384Z,101788.31
2022-08-27T05:28:50.012Z,101791.75
2022-08-27T05:31:18.032Z,101784.81
2022-08-27T05:33:45.133Z,101797.81
2022-08-27T05:36:33.138Z,101799.53
2022-08-27T05:39:02.083Z,101795.19
2022-08-27T05:41:34.055Z,101804.72
2022-08-27T05:44:18.523Z,101802.91
2022-08-27T05:46:51.439Z,101804.47
2022-08-27T05:49:18.429Z,101811.38
2022-08-27T05:51:45.037Z,101803.47
2022-08-27T05:54:18.997Z,101806.81
2022-08-27T05:56:46.228Z,101801.56
2022-08-27T05:59:31.376Z,101791.09
2022-08-27T06:02:01.627Z,101792.66
2022-08-27T06:04:28.136Z,101796.56
2022-08-27T06:06:54.729Z,101798.28
2022-08-27T06:09:24.417Z,101796.16
2022-08-27T06:11:53.008Z,101798.50
2022-08-27T06:14:19.538Z,101798.78
2022-08-27T06:16:46.118Z,101801.25
2022-08-27T06:19:12.983Z,101795.25
2022-08-27T06:21:40.969Z,101801.13
2022-08-27T06:24:08.600Z,101804.13
2022-08-27T06:26:36.066Z,101805.19
2022-08-27T06:29:05.268Z,101804.19
2022-08-27T06:31:32.575Z,101801.91
2022-08-27T06:34:02.881Z,101803.00
2022-08-27T06:36:36.825Z,101797.06
2022-08-27T06:39:03.847Z,101797.16
2022-08-27T06:41:30.349Z,101791.13
2022-08-27T06:43:58.408Z,101799.06
2022-08-27T06:46:27.855Z,101802.59
2022-08-27T06:48:56.920Z,101797.47
2022-08-27T06:51:27.618Z,101797.47
2022-08-27T06:53:55.980Z,101800.06
2022-08-27T06:56:23.100Z,101797.53
2022-08-27T06:58:55.315Z,101801.84
2022-08-27T07:01:27.158Z,101810.53
2022-08-27T07:03:59.785Z,101807.91
2022-08-27T07:06:29.241Z,101807.88
2022-08-27T07:08:59.781Z,101804.47
2022-08-27T07:11:28.545Z,101815.66
2022-08-27T07:13:56.193Z,101807.88
2022-08-27T07:16:24.615Z,101812.13
2022-08-27T07:18:54.545Z,101802.69
2022-08-27T07:21:22.574Z,101817.44
2022-08-27T07:23:52.582Z,101811.31
2022-08-27T07:26:20.013Z,101817.41
2022-08-27T07:28:47.963Z,101817.41
2022-08-27T07:31:20.030Z,101814.72
2022-08-27T07:33:51.374Z,101808.63
2022-08-27T07:36:21.052Z,101824.19
2022-08-27T07:38:53.518Z,101818.97
2022-08-27T07:41:30.731Z,101811.13
2022-08-27T07:44:18.411Z,101825.03
2022-08-27T07:46:48.212Z,101824.97
2022-08-27T07:49:17.263Z,101833.59
2022-08-27T07:51:44.702Z,101835.22
2022-08-27T07:54:11.404Z,101837.59
2022-08-27T07:56:37.947Z,101837.59
2022-08-27T07:59:04.444Z,101844.53
2022-08-27T08:01:30.977Z,101841.94
2022-08-27T08:03:57.533Z,101841.72
2022-08-27T08:06:24.049Z,101839.88
2022-08-27T08:08:50.586Z,101844.03
2022-08-27T08:11:19.943Z,101843.97
2022-08-27T08:13:47.897Z,101845.59
2022-08-27T08:16:15.349Z,101845.44
2022-08-27T08:18:42.019Z,101849.84
2022-08-27T08:21:12.526Z,101846.44
2022-08-27T08:23:40.164Z,101854.13
2022-08-27T08:26:08.286Z,101859.25
2022-08-27T08:28:35.358Z,101858.28
2022-08-27T08:31:02.165Z,101856.44
2022-08-27T08:33:28.854Z,101863.47
2022-08-27T08:35:55.456Z,101860.81
2022-08-27T08:38:22.107Z,101854.34
2022-08-27T08:40:53.281Z,101859.66
2022-08-27T08:43:37.127Z,101861.31
2022-08-27T08:46:17.232Z,101867.59
2022-08-27T08:48:49.369Z,101861.28
2022-08-27T08:51:32.820Z,101864.75
2022-08-27T08:54:06.787Z,101875.03
2022-08-27T08:56:56.820Z,101867.69
2022-08-27T08:59:31.609Z,101857.91
2022-08-27T09:01:58.195Z,101863.72
2022-08-27T09:04:27.676Z,101867.66
2022-08-27T09:07:16.222Z,101872.06
2022-08-27T09:10:18.175Z,101874.88
2022-08-27T09:12:45.760Z,101874.47
2022-08-27T09:15:18.757Z,101879.59
2022-08-27T09:17:47.667Z,101879.72
2022-08-27T09:20:19.884Z,101875.16
2022-08-27T09:23:25.896Z,101864.22
2022-08-27T09:25:52.874Z,101863.31
2022-08-27T09:28:46.003Z,101867.00
2022-08-27T09:31:19.006Z,101875.25
2022-08-27T09:33:56.652Z,101876.88
2022-08-27T09:36:24.484Z,101871.56
2022-08-27T09:38:58.062Z,101887.03
2022-08-27T09:41:29.477Z,101885.44
2022-08-27T09:44:17.754Z,101885.53
2022-08-27T09:46:56.890Z,101884.72
2022-08-27T09:49:24.614Z,101883.88
2022-08-27T09:51:51.965Z,101880.53
2022-08-27T09:54:47.216Z,101884.78
2022-08-27T09:57:26.326Z,101882.31
2022-08-27T09:59:57.468Z,101876.84
2022-08-27T10:02:26.076Z,101876.72
2022-08-27T10:05:03.410Z,101875.78
2022-08-27T10:07:52.499Z,101879.25
2022-08-27T10:10:37.130Z,101873.69
2022-08-27T10:13:10.511Z,101878.69
2022-08-27T10:16:06.595Z,101876.72
2022-08-27T10:19:14.803Z,101874.69
2022-08-27T10:22:04.267Z,101869.25
2022-08-27T10:24:49.485Z,101877.66
2022-08-27T10:27:26.200Z,101875.69
2022-08-27T10:30:19.033Z,101880.00
2022-08-27T10:33:18.289Z,101886.66
2022-08-27T10:36:00.885Z,101882.31
2022-08-27T10:38:39.052Z,101878.88
2022-08-27T10:41:25.187Z,101874.25
2022-08-27T10:44:00.447Z,101878.38
2022-08-27T10:47:04.951Z,101881.84
2022-08-27T10:50:04.003Z,101877.09
2022-08-27T10:52:41.923Z,101878.88
2022-08-27T10:55:12.730Z,101878.66
2022-08-27T10:58:00.283Z,101884.13
2022-08-27T11:00:43.014Z,101881.84
2022-08-27T11:03:19.949Z,101877.66
2022-08-27T11:05:50.287Z,101881.44
2022-08-27T11:08:24.203Z,101879.94
2022-08-27T11:11:08.590Z,101864.59
2022-08-27T11:13:51.578Z,101862.16
2022-08-27T11:16:26.532Z,101864.50
2022-08-27T11:19:16.502Z,101866.94
2022-08-27T11:21:56.338Z,101872.84
2022-08-27T11:24:35.338Z,101870.09
2022-08-27T11:27:06.210Z,101876.66
2022-08-27T11:29:47.078Z,101869.84
2022-08-27T11:32:23.925Z,101872.09
2022-08-27T11:34:58.238Z,101874.84
2022-08-27T11:37:45.338Z,101867.41
2022-08-27T11:40:41.378Z,101863.69
2022-08-27T11:43:10.753Z,101869.41
2022-08-27T11:45:39.411Z,101864.59
2022-08-27T11:48:21.924Z,101861.78
2022-08-27T11:51:00.347Z,101865.22
2022-08-27T11:53:52.366Z,101856.44
2022-08-27T11:56:36.703Z,101856.25
2022-08-27T11:59:12.086Z,101856.28
2022-08-27T12:01:40.193Z,101867.56
2022-08-27T12:04:21.078Z,101865.19
2022-08-27T12:07:00.212Z,101857.75
2022-08-27T12:09:27.500Z,101858.94
2022-08-27T12:12:19.203Z,101868.16
2022-08-27T12:15:07.919Z,101865.66
2022-08-27T12:18:05.184Z,101853.44
2022-08-27T12:20:56.404Z,101847.97
2022-08-27T12:23:49.994Z,101854.88
2022-08-27T12:26:25.559Z,101865.28
2022-08-27T12:29:16.287Z,101858.38
2022-08-27T12:31:45.368Z,101862.25
2022-08-27T12:34:25.197Z,101853.06
2022-08-27T12:36:53.895Z,101870.19
2022-08-27T12:39:27.168Z,101863.06
2022-08-27T12:41:55.763Z,101855.59
2022-08-27T12:44:31.537Z,101855.00
2022-08-27T12:47:04.344Z,101863.78
2022-08-27T12:49:55.818Z,101855.59
2022-08-27T12:53:06.751Z,101864.44
2022-08-27T12:55:52.216Z,101862.69
2022-08-27T12:58:44.390Z,101854.16
2022-08-27T13:01:41.082Z,101852.78
2022-08-27T13:04:28.680Z,101855.97
2022-08-27T13:06:55.290Z,101849.50
2022-08-27T13:09:33.344Z,101850.59
2022-08-27T13:12:02.580Z,101857.97
2022-08-27T13:14:37.932Z,101855.88
2022-08-27T13:17:10.626Z,101857.81
2022-08-27T13:19:49.136Z,101858.91
2022-08-27T13:22:26.069Z,101847.59
2022-08-27T13:24:54.867Z,101850.97
2022-08-27T13:27:39.665Z,101849.16
2022-08-27T13:30:10.004Z,101855.19
2022-08-27T13:32:40.224Z,101845.16
2022-08-27T13:35:07.607Z,101844.16
2022-08-27T13:37:41.566Z,101844.66
2022-08-27T13:40:08.706Z,101846.56
2022-08-27T13:42:41.532Z,101841.41
2022-08-27T13:45:08.931Z,101844.38
2022-08-27T13:47:54.292Z,101844.28
2022-08-27T13:50:27.311Z,101851.91
2022-08-27T13:53:22.841Z,101849.25
2022-08-27T13:55:50.510Z,101845.81
2022-08-27T13:58:25.248Z,101839.78
2022-08-27T14:00:51.775Z,101842.47
2022-08-27T14:03:33.917Z,101838.38
2022-08-27T14:06:01.090Z,101830.66
2022-08-27T14:08:31.173Z,101829.81
2022-08-27T14:11:05.699Z,101836.38
2022-08-27T14:13:46.813Z,101846.81
2022-08-27T14:16:23.993Z,101844.28
2022-08-27T14:19:12.285Z,101844.75
2022-08-27T14:21:42.213Z,101844.72
2022-08-27T14:24:09.259Z,101847.56
2022-08-27T14:26:36.153Z,101847.38
2022-08-27T14:29:03.492Z,101852.31
2022-08-27T14:31:32.927Z,101847.63
2022-08-27T14:34:00.346Z,101853.22
2022-08-27T14:36:29.506Z,101847.84
2022-08-27T14:38:56.366Z,101863.03
2022-08-27T14:41:22.973Z,101858.16
2022-08-27T14:43:49.895Z,101857.94
2022-08-27T14:46:41.414Z,101870.28
2022-08-27T14:49:16.309Z,101864.44
2022-08-27T14:51:45.852Z,101872.31
2022-08-27T14:54:12.619Z,101867.53
2022-08-27T14:56:39.175Z,101875.69
2022-08-27T14:59:05.751Z,101874.84
2022-08-27T15:01:35.923Z,101882.91
2022-08-27T15:04:03.059Z,101882.25
2022-08-27T15:06:29.576Z,101870.03
2022-08-27T15:08:56.476Z,101877.66
2022-08-27T15:11:27.665Z,101869.72
2022-08-27T15:13:56.131Z,101872.56
2022-08-27T15:16:38.907Z,101877.16
2022-08-27T15:19:08.060Z,101873.50
2022-08-27T15:21:36.908Z,101872.78
2022-08-27T15:24:19.148Z,101878.25
2022-08-27T15:26:46.159Z,101889.69
2022-08-27T15:29:13.089Z,101886.88
2022-08-27T15:31:40.391Z,101883.53
2022-08-27T15:34:07.017Z,101894.34
2022-08-27T15:36:34.447Z,101892.03
2022-08-27T15:39:01.012Z,101888.66
2022-08-27T15:41:29.376Z,101897.19
2022-08-27T15:43:56.799Z,101886.56
2022-08-27T15:46:25.525Z,101888.22
2022-08-27T15:48:52.859Z,101899.97
2022-08-27T15:51:26.872Z,101896.31
2022-08-27T15:53:53.792Z,101895.47
2022-08-27T15:56:20.357Z,101896.47
2022-08-27T15:58:46.910Z,101894.66
2022-08-27T16:01:17.341Z,101893.06
2022-08-27T16:03:46.201Z,101895.84
2022-08-27T16:06:18.832Z,101881.13
2022-08-27T16:08:46.712Z,101887.78
2022-08-27T16:11:13.378Z,101888.63
2022-08-27T16:13:40.197Z,101889.69
2022-08-27T16:16:07.662Z,101892.38
2022-08-27T16:18:35.353Z,101891.22
2022-08-27T16:21:04.132Z,101888.66
2022-08-27T16:23:32.272Z,101902.66
2022-08-27T16:25:59.916Z,101894.13
2022-08-27T16:28:26.446Z,101899.50
2022-08-27T16:30:54.725Z,101889.44
2022-08-27T16:33:23.416Z,101893.88
2022-08-27T16:35:50.947Z,101892.03
2022-08-27T16:38:17.492Z,101890.97
2022-08-27T16:40:50.584Z,101893.00
2022-08-27T16:43:21.843Z,101889.63
2022-08-27T16:45:53.187Z,101885.22
2022-08-27T16:48:39.026Z,101895.56
2022-08-27T16:51:07.436Z,101892.31
2022-08-27T16:53:39.523Z,101887.88
2022-08-27T16:56:06.142Z,101886.19
2022-08-27T16:58:33.147Z,101891.59
2022-08-27T17:01:03.423Z,101883.09
2022-08-27T17:03:30.617Z,101890.16
2022-08-27T17:05:58.827Z,101897.09
2022-08-27T17:08:27.611Z,101886.78
2022-08-27T17:10:55.709Z,101897.19
2022-08-27T17:13:28.142Z,101891.09
2022-08-27T17:15:56.348Z,101896.41
2022-08-27T17:18:27.704Z,101892.09
2022-08-27T17:20:56.152Z,101888.69
2022-08-27T17:23:43.959Z,101896.66
2022-08-27T17:26:13.130Z,101892.44
2022-08-27T17:28:41.416Z,101895.94
2022-08-27T17:31:14.139Z,101895.03
2022-08-27T17:33:44.925Z,101894.22
2022-08-27T17:36:14.162Z,101896.88
2022-08-27T17:38:41.396Z,101889.97
2022-08-27T17:41:13.401Z,101896.09
2022-08-27T17:43:41.505Z,101898.78
2022-08-27T17:46:08.252Z,101893.63
2022-08-27T17:48:35.185Z,101898.94
2022-08-27T17:51:01.855Z,101901.56
2022-08-27T17:53:28.455Z,101897.28
2022-08-27T17:55:54.961Z,101900.78
2022-08-27T17:58:21.515Z,101903.47
2022-08-27T18:00:48.415Z,101901.78
2022-08-27T18:03:19.910Z,101912.34
2022-08-27T18:05:48.015Z,101916.69
2022-08-27T18:08:16.206Z,101914.09
2022-08-27T18:10:44.279Z,101917.66
2022-08-27T18:13:14.213Z,101918.56
2022-08-27T18:15:42.431Z,101922.94
2022-08-27T18:18:10.212Z,101926.50
2022-08-27T18:20:40.737Z,101927.44
2022-08-27T18:23:09.989Z,101929.19
2022-08-27T18:25:38.670Z,101920.50
2022-08-27T18:28:08.343Z,101927.50
2022-08-27T18:30:35.971Z,101925.81
2022-08-27T18:33:02.707Z,101924.13
2022-08-27T18:35:32.851Z,101932.78
2022-08-27T18:37:59.916Z,101926.78
2022-08-27T18:40:30.595Z,101934.56
2022-08-27T18:42:58.129Z,101937.22
2022-08-27T18:45:28.518Z,101939.00
2022-08-27T18:48:00.371Z,101953.81
2022-08-27T18:50:27.449Z,101946.06
2022-08-27T18:52:56.698Z,101940.00
2022-08-27T18:55:28.184Z,101959.97
2022-08-27T18:57:54.869Z,101959.13
2022-08-27T19:00:22.315Z,101965.25
2022-08-27T19:02:52.748Z,101959.22
2022-08-27T19:05:24.232Z,101957.44
2022-08-27T19:07:50.874Z,101960.09
2022-08-27T19:10:18.286Z,101956.63
2022-08-27T19:12:44.899Z,101961.03
2022-08-27T19:15:12.282Z,101958.47
2022-08-27T19:17:41.712Z,101965.38
2022-08-27T19:20:08.407Z,101963.69
2022-08-27T19:22:35.019Z,101972.31
2022-08-27T19:25:01.680Z,101976.69
2022-08-27T19:27:29.459Z,101983.63
2022-08-27T19:29:56.133Z,101979.31
2022-08-27T19:32:23.663Z,101976.69
2022-08-27T19:34:50.359Z,101985.41
2022-08-27T19:37:20.830Z,101989.75
2022-08-27T19:39:47.861Z,101995.00
2022-08-27T19:42:14.514Z,101988.03
2022-08-27T19:44:41.127Z,101994.13
2022-08-27T19:47:10.128Z,101988.03
2022-08-27T19:49:37.113Z,102001.09
2022-08-27T19:52:08.264Z,102000.22
2022-08-27T19:54:43.172Z,101995.88
2022-08-27T19:57:18.515Z,102008.03
2022-08-27T19:59:45.188Z,102004.59
2022-08-27T20:02:12.520Z,102009.78
2022-08-27T20:05:01.266Z,102010.69
2022-08-27T20:07:28.957Z,102011.53
2022-08-27T20:09:55.553Z,102012.41
2022-08-27T20:12:22.854Z,102015.00
2022-08-27T20:14:51.707Z,102007.19
2022-08-27T20:17:19.068Z,102012.41
2022-08-27T20:19:47.096Z,102013.28
2022-08-27T20:22:16.442Z,102007.16
2022-08-27T20:24:43.010Z,102011.53
2022-08-27T20:27:09.721Z,102014.97
2022-08-27T20:29:36.280Z,102012.38
2022-08-27T20:32:04.351Z,102015.78
2022-08-27T20:34:32.521Z,102015.78
2022-08-27T20:36:59.161Z,102015.75
2022-08-27T20:39:25.714Z,102019.22
2022-08-27T20:41:52.297Z,102016.63
2022-08-27T20:44:18.840Z,102017.50
2022-08-27T20:46:52.074Z,102019.22
2022-08-27T20:49:18.831Z,102021.81
2022-08-27T20:51:51.153Z,102020.09
2022-08-27T20:54:30.273Z,102018.31
2022-08-27T20:56:58.540Z,102025.22
2022-08-27T20:59:44.171Z,102018.28
2022-08-27T21:02:12.999Z,102033.88
2022-08-27T21:04:43.313Z,102026.91
2022-08-27T21:07:09.922Z,102034.69
2022-08-27T21:09:36.514Z,102034.69
2022-08-27T21:12:22.843Z,102030.34
2022-08-27T21:14:50.078Z,102025.97
2022-08-27T21:17:21.559Z,102023.34
2022-08-27T21:19:48.107Z,102022.47
2022-08-27T21:22:14.620Z,102032.91
2022-08-27T21:24:41.237Z,102038.97
2022-08-27T21:27:07.755Z,102035.44
2022-08-27T21:29:34.335Z,102034.56
2022-08-27T21:32:00.884Z,102042.38
2022-08-27T21:34:28.201Z,102038.00
2022-08-27T21:36:54.765Z,102038.84
2022-08-27T21:39:21.291Z,102045.81
2022-08-27T21:41:48.063Z,102044.91
2022-08-27T21:44:14.753Z,102051.88
2022-08-27T21:46:41.697Z,102050.13
2022-08-27T21:49:08.244Z,102041.44
2022-08-27T21:51:34.780Z,102041.47
2022-08-27T21:54:01.460Z,102038.81
2022-08-27T21:56:28.356Z,102044.03
2022-08-27T21:58:54.910Z,102042.28
2022-08-27T22:01:21.718Z,102040.56
2022-08-27T22:03:50.806Z,102047.47
2022-08-27T22:06:18.725Z,102048.34
2022-08-27T22:08:45.449Z,102052.69
2022-08-27T22:11:12.563Z,102053.53
2022-08-27T22:13:39.691Z,102043.94
2022-08-27T22:16:06.694Z,102053.50
2022-08-27T22:18:33.831Z,102057.78
2022-08-27T22:21:00.901Z,102049.09
2022-08-27T22:23:27.532Z,102055.16
2022-08-27T22:25:54.064Z,102056.84
2022-08-27T22:28:21.165Z,102054.22
2022-08-27T22:30:47.678Z,102055.03
2022-08-27T22:33:15.178Z,102056.81
2022-08-27T22:35:41.910Z,102061.09
2022-08-27T22:38:09.373Z,102059.34
2022-08-27T22:40:36.667Z,102058.50
2022-08-27T22:43:04.269Z,102058.47
2022-08-27T22:45:31.191Z,102054.94
2022-08-27T22:47:58.138Z,102055.75
2022-08-27T22:50:25.160Z,102055.75
2022-08-27T22:52:51.984Z,102056.63
2022-08-27T22:55:21.849Z,102069.63
2022-08-27T22:57:50.586Z,102063.56
2022-08-27T23:00:27.040Z,102063.59
2022-08-27T23:02:53.695Z,102066.22
2022-08-27T23:05:21.200Z,102061.91
2022-08-27T23:07:48.279Z,102061.03
2022-08-27T23:10:19.603Z,102063.63
2022-08-27T23:12:47.666Z,102067.13
2022-08-27T23:15:16.903Z,102066.25
2022-08-27T23:17:43.476Z,102071.47
2022-08-27T23:20:11.866Z,102073.19
2022-08-27T23:22:38.933Z,102079.25
2022-08-27T23:25:26.301Z,102073.16
2022-08-27T23:27:53.505Z,102077.47
2022-08-27T23:30:21.707Z,102065.31
2022-08-27T23:32:53.633Z,102070.53
2022-08-27T23:35:22.632Z,102066.22
2022-08-27T23:37:50.178Z,102068.81
2022-08-27T23:40:17.584Z,102067.16
2022-08-27T23:42:45.744Z,102068.03
2022-08-27T23:45:16.073Z,102068.88
2022-08-27T23:47:42.770Z,102066.25
2022-08-27T23:50:10.180Z,102068.88
2022-08-27T23:52:37.626Z,102071.47
2022-08-27T23:55:05.194Z,102068.84
2022-08-27T23:57:31.721Z,102069.75
2022-08-27T23:59:58.557Z,102071.47
